sensor_id;sensor_type;location;lat;lon;timestamp;P1;durP1;ratioP1;P2;durP2;ratioP2
19525;SDS011;9907;42.676;26.348;2022-12-18T00:00:30;3.90;;;3.30;;
19525;SDS011;9907;42.676;26.348;2022-12-18T00:02:56;3.47;;;3.17;;
19525;SDS011;9907;42.676;26.348;2022-12-18T00:05:21;3.33;;;3.03;;
19525;SDS011;9907;42.676;26.348;2022-12-18T00:07:47;3.13;;;2.40;;
19525;SDS011;9907;42.676;26.348;2022-12-18T00:10:12;2.73;;;2.53;;
19525;SDS011;9907;42.676;26.348;2022-12-18T00:12:38;3.70;;;2.73;;
19525;SDS011;9907;42.676;26.348;2022-12-18T00:15:03;3.13;;;2.40;;
19525;SDS011;9907;42.676;26.348;2022-12-18T00:17:29;2.67;;;2.40;;
19525;SDS011;9907;42.676;26.348;2022-12-18T00:19:54;3.73;;;2.50;;
19525;SDS011;9907;42.676;26.348;2022-12-18T00:22:20;3.07;;;2.43;;
19525;SDS011;9907;42.676;26.348;2022-12-18T00:24:45;3.77;;;2.60;;
19525;SDS011;9907;42.676;26.348;2022-12-18T00:27:10;3.07;;;2.50;;
19525;SDS011;9907;42.676;26.348;2022-12-18T00:29:36;3.13;;;2.43;;
19525;SDS011;9907;42.676;26.348;2022-12-18T00:32:01;3.33;;;2.70;;
19525;SDS011;9907;42.676;26.348;2022-12-18T00:34:27;2.67;;;2.47;;
19525;SDS011;9907;42.676;26.348;2022-12-18T00:36:52;3.03;;;2.40;;
19525;SDS011;9907;42.676;26.348;2022-12-18T00:39:18;2.83;;;2.53;;
19525;SDS011;9907;42.676;26.348;2022-12-18T00:41:43;2.60;;;2.40;;
19525;SDS011;9907;42.676;26.348;2022-12-18T00:44:27;2.70;;;2.23;;
19525;SDS011;9907;42.676;26.348;2022-12-18T00:46:53;2.97;;;2.53;;
19525;SDS011;9907;42.676;26.348;2022-12-18T00:49:19;2.77;;;2.30;;
19525;SDS011;9907;42.676;26.348;2022-12-18T00:51:44;2.37;;;2.10;;
19525;SDS011;9907;42.676;26.348;2022-12-18T00:54:10;3.03;;;1.97;;
19525;SDS011;9907;42.676;26.348;2022-12-18T00:56:36;4.00;;;2.50;;
19525;SDS011;9907;42.676;26.348;2022-12-18T00:59:03;2.50;;;2.30;;
19525;SDS011;9907;42.676;26.348;2022-12-18T01:01:28;3.07;;;2.60;;
19525;SDS011;9907;42.676;26.348;2022-12-18T01:03:57;2.83;;;2.43;;
19525;SDS011;9907;42.676;26.348;2022-12-18T01:06:22;2.73;;;2.40;;
19525;SDS011;9907;42.676;26.348;2022-12-18T01:08:48;2.70;;;2.50;;
19525;SDS011;9907;42.676;26.348;2022-12-18T01:11:15;2.20;;;2.00;;
19525;SDS011;9907;42.676;26.348;2022-12-18T01:13:43;2.50;;;2.20;;
19525;SDS011;9907;42.676;26.348;2022-12-18T01:16:11;2.80;;;2.50;;
19525;SDS011;9907;42.676;26.348;2022-12-18T01:18:37;2.87;;;2.67;;
19525;SDS011;9907;42.676;26.348;2022-12-18T01:21:07;2.57;;;2.37;;
19525;SDS011;9907;42.676;26.348;2022-12-18T01:23:34;2.43;;;2.23;;
19525;SDS011;9907;42.676;26.348;2022-12-18T01:26:09;2.57;;;2.37;;
19525;SDS011;9907;42.676;26.348;2022-12-18T01:28:37;2.50;;;2.30;;
19525;SDS011;9907;42.676;26.348;2022-12-18T01:31:16;2.53;;;2.33;;
19525;SDS011;9907;42.676;26.348;2022-12-18T01:33:46;2.63;;;2.43;;
19525;SDS011;9907;42.676;26.348;2022-12-18T01:36:45;2.60;;;2.40;;
19525;SDS011;9907;42.676;26.348;2022-12-18T01:39:07;5.40;;;3.23;;
19525;SDS011;9907;42.676;26.348;2022-12-18T01:41:36;2.50;;;2.30;;
19525;SDS011;9907;42.676;26.348;2022-12-18T01:47:43;3.53;;;2.20;;
19525;SDS011;9907;42.676;26.348;2022-12-18T01:50:13;2.90;;;2.60;;
19525;SDS011;9907;42.676;26.348;2022-12-18T01:52:44;3.33;;;2.50;;
19525;SDS011;9907;42.676;26.348;2022-12-18T01:55:12;3.07;;;2.87;;
19525;SDS011;9907;42.676;26.348;2022-12-18T01:57:39;2.93;;;2.63;;
19525;SDS011;9907;42.676;26.348;2022-12-18T02:00:17;5.43;;;3.47;;
19525;SDS011;9907;42.676;26.348;2022-12-18T02:02:44;5.37;;;3.47;;
19525;SDS011;9907;42.676;26.348;2022-12-18T02:05:11;3.53;;;3.23;;
19525;SDS011;9907;42.676;26.348;2022-12-18T02:10:31;3.33;;;3.03;;
19525;SDS011;9907;42.676;26.348;2022-12-18T02:13:20;3.43;;;3.10;;
19525;SDS011;9907;42.676;26.348;2022-12-18T02:18:43;3.40;;;3.03;;
19525;SDS011;9907;42.676;26.348;2022-12-18T02:26:37;3.17;;;2.87;;
19525;SDS011;9907;42.676;26.348;2022-12-18T02:29:21;2.83;;;2.63;;
19525;SDS011;9907;42.676;26.348;2022-12-18T02:31:52;3.03;;;2.60;;
19525;SDS011;9907;42.676;26.348;2022-12-18T02:34:20;5.13;;;2.73;;
19525;SDS011;9907;42.676;26.348;2022-12-18T02:36:51;3.40;;;3.10;;
19525;SDS011;9907;42.676;26.348;2022-12-18T02:39:19;2.60;;;2.40;;
19525;SDS011;9907;42.676;26.348;2022-12-18T02:41:46;3.77;;;2.60;;
19525;SDS011;9907;42.676;26.348;2022-12-18T02:44:13;3.13;;;2.87;;
19525;SDS011;9907;42.676;26.348;2022-12-18T02:46:43;3.17;;;2.90;;
19525;SDS011;9907;42.676;26.348;2022-12-18T02:49:22;3.90;;;3.53;;
19525;SDS011;9907;42.676;26.348;2022-12-18T02:52:12;3.43;;;3.13;;
19525;SDS011;9907;42.676;26.348;2022-12-18T03:00:08;3.63;;;3.23;;
19525;SDS011;9907;42.676;26.348;2022-12-18T03:02:48;4.27;;;3.37;;
19525;SDS011;9907;42.676;26.348;2022-12-18T03:06:05;4.20;;;3.60;;
19525;SDS011;9907;42.676;26.348;2022-12-18T03:08:27;3.23;;;2.93;;
19525;SDS011;9907;42.676;26.348;2022-12-18T03:11:01;4.17;;;2.83;;
19525;SDS011;9907;42.676;26.348;2022-12-18T03:13:39;3.33;;;3.00;;
19525;SDS011;9907;42.676;26.348;2022-12-18T03:16:06;3.83;;;3.53;;
19525;SDS011;9907;42.676;26.348;2022-12-18T03:21:09;3.70;;;3.40;;
19525;SDS011;9907;42.676;26.348;2022-12-18T03:23:42;3.10;;;2.80;;
19525;SDS011;9907;42.676;26.348;2022-12-18T03:26:14;5.00;;;3.73;;
19525;SDS011;9907;42.676;26.348;2022-12-18T03:28:44;4.07;;;3.67;;
19525;SDS011;9907;42.676;26.348;2022-12-18T03:31:14;5.23;;;3.77;;
19525;SDS011;9907;42.676;26.348;2022-12-18T03:33:52;4.60;;;3.17;;
19525;SDS011;9907;42.676;26.348;2022-12-18T03:36:19;3.17;;;2.87;;
19525;SDS011;9907;42.676;26.348;2022-12-18T03:38:45;3.30;;;3.00;;
19525;SDS011;9907;42.676;26.348;2022-12-18T03:41:19;3.20;;;2.90;;
19525;SDS011;9907;42.676;26.348;2022-12-18T03:43:55;4.50;;;3.20;;
19525;SDS011;9907;42.676;26.348;2022-12-18T03:49:25;2.37;;;2.10;;
19525;SDS011;9907;42.676;26.348;2022-12-18T03:52:54;2.67;;;2.40;;
19525;SDS011;9907;42.676;26.348;2022-12-18T03:54:53;2.77;;;2.53;;
19525;SDS011;9907;42.676;26.348;2022-12-18T03:57:24;5.40;;;3.70;;
19525;SDS011;9907;42.676;26.348;2022-12-18T03:59:55;3.73;;;2.90;;
19525;SDS011;9907;42.676;26.348;2022-12-18T04:02:25;3.40;;;3.10;;
19525;SDS011;9907;42.676;26.348;2022-12-18T04:04:55;5.57;;;3.40;;
19525;SDS011;9907;42.676;26.348;2022-12-18T04:07:24;3.90;;;3.47;;
19525;SDS011;9907;42.676;26.348;2022-12-18T04:09:50;3.50;;;3.20;;
19525;SDS011;9907;42.676;26.348;2022-12-18T04:12:20;3.53;;;3.23;;
19525;SDS011;9907;42.676;26.348;2022-12-18T04:14:45;3.20;;;2.90;;
19525;SDS011;9907;42.676;26.348;2022-12-18T04:17:11;3.93;;;3.10;;
19525;SDS011;9907;42.676;26.348;2022-12-18T04:19:36;4.37;;;2.83;;
19525;SDS011;9907;42.676;26.348;2022-12-18T04:22:02;3.43;;;2.80;;
19525;SDS011;9907;42.676;26.348;2022-12-18T04:24:27;3.23;;;2.93;;
19525;SDS011;9907;42.676;26.348;2022-12-18T04:26:53;7.20;;;3.33;;
19525;SDS011;9907;42.676;26.348;2022-12-18T04:29:18;2.90;;;2.70;;
19525;SDS011;9907;42.676;26.348;2022-12-18T04:31:44;4.30;;;2.80;;
19525;SDS011;9907;42.676;26.348;2022-12-18T04:34:09;3.73;;;2.80;;
19525;SDS011;9907;42.676;26.348;2022-12-18T04:36:34;3.93;;;2.93;;
19525;SDS011;9907;42.676;26.348;2022-12-18T04:39:00;4.20;;;3.00;;
19525;SDS011;9907;42.676;26.348;2022-12-18T04:41:25;2.73;;;2.50;;
19525;SDS011;9907;42.676;26.348;2022-12-18T04:43:52;2.83;;;2.60;;
19525;SDS011;9907;42.676;26.348;2022-12-18T04:46:17;3.67;;;2.90;;
19525;SDS011;9907;42.676;26.348;2022-12-18T04:48:44;3.13;;;2.83;;
19525;SDS011;9907;42.676;26.348;2022-12-18T04:51:11;2.73;;;2.53;;
19525;SDS011;9907;42.676;26.348;2022-12-18T04:53:36;3.03;;;2.73;;
19525;SDS011;9907;42.676;26.348;2022-12-18T04:56:03;3.20;;;3.00;;
19525;SDS011;9907;42.676;26.348;2022-12-18T04:58:47;3.57;;;2.50;;
19525;SDS011;9907;42.676;26.348;2022-12-18T05:01:13;3.57;;;2.93;;
19525;SDS011;9907;42.676;26.348;2022-12-18T05:03:40;3.50;;;2.90;;
19525;SDS011;9907;42.676;26.348;2022-12-18T05:06:06;2.83;;;2.57;;
19525;SDS011;9907;42.676;26.348;2022-12-18T05:08:32;4.10;;;2.63;;
19525;SDS011;9907;42.676;26.348;2022-12-18T05:11:01;2.70;;;2.50;;
19525;SDS011;9907;42.676;26.348;2022-12-18T05:13:28;2.77;;;2.50;;
19525;SDS011;9907;42.676;26.348;2022-12-18T05:15:55;2.90;;;2.60;;
19525;SDS011;9907;42.676;26.348;2022-12-18T05:18:21;3.57;;;2.77;;
19525;SDS011;9907;42.676;26.348;2022-12-18T05:20:47;2.40;;;2.20;;
19525;SDS011;9907;42.676;26.348;2022-12-18T05:23:12;2.80;;;2.60;;
19525;SDS011;9907;42.676;26.348;2022-12-18T05:25:38;2.70;;;2.50;;
19525;SDS011;9907;42.676;26.348;2022-12-18T05:28:03;4.07;;;2.70;;
19525;SDS011;9907;42.676;26.348;2022-12-18T05:30:29;2.47;;;2.27;;
19525;SDS011;9907;42.676;26.348;2022-12-18T05:32:54;3.20;;;2.90;;
19525;SDS011;9907;42.676;26.348;2022-12-18T05:35:20;3.07;;;2.60;;
19525;SDS011;9907;42.676;26.348;2022-12-18T05:37:45;2.80;;;2.60;;
19525;SDS011;9907;42.676;26.348;2022-12-18T05:40:11;2.57;;;2.33;;
19525;SDS011;9907;42.676;26.348;2022-12-18T05:42:37;3.63;;;2.90;;
19525;SDS011;9907;42.676;26.348;2022-12-18T05:45:03;4.00;;;2.90;;
19525;SDS011;9907;42.676;26.348;2022-12-18T05:47:29;2.50;;;2.30;;
19525;SDS011;9907;42.676;26.348;2022-12-18T05:49:55;3.50;;;2.87;;
19525;SDS011;9907;42.676;26.348;2022-12-18T05:52:21;3.03;;;2.60;;
19525;SDS011;9907;42.676;26.348;2022-12-18T05:54:46;3.63;;;2.33;;
19525;SDS011;9907;42.676;26.348;2022-12-18T05:57:12;2.83;;;2.60;;
19525;SDS011;9907;42.676;26.348;2022-12-18T05:59:37;2.60;;;2.40;;
19525;SDS011;9907;42.676;26.348;2022-12-18T06:02:03;2.90;;;2.60;;
19525;SDS011;9907;42.676;26.348;2022-12-18T06:04:28;2.73;;;2.50;;
19525;SDS011;9907;42.676;26.348;2022-12-18T06:06:55;2.80;;;2.60;;
19525;SDS011;9907;42.676;26.348;2022-12-18T06:09:20;3.60;;;3.00;;
19525;SDS011;9907;42.676;26.348;2022-12-18T06:11:46;4.70;;;3.00;;
19525;SDS011;9907;42.676;26.348;2022-12-18T06:14:11;2.83;;;2.60;;
19525;SDS011;9907;42.676;26.348;2022-12-18T06:16:37;5.10;;;2.77;;
19525;SDS011;9907;42.676;26.348;2022-12-18T06:19:03;3.30;;;2.87;;
19525;SDS011;9907;42.676;26.348;2022-12-18T06:21:30;4.00;;;2.70;;
19525;SDS011;9907;42.676;26.348;2022-12-18T06:23:57;3.10;;;2.80;;
19525;SDS011;9907;42.676;26.348;2022-12-18T06:26:22;3.63;;;3.27;;
19525;SDS011;9907;42.676;26.348;2022-12-18T06:28:51;3.10;;;2.70;;
19525;SDS011;9907;42.676;26.348;2022-12-18T06:31:16;3.23;;;3.00;;
19525;SDS011;9907;42.676;26.348;2022-12-18T06:33:42;3.27;;;2.97;;
19525;SDS011;9907;42.676;26.348;2022-12-18T06:36:08;2.87;;;2.50;;
19525;SDS011;9907;42.676;26.348;2022-12-18T06:38:38;2.93;;;2.73;;
19525;SDS011;9907;42.676;26.348;2022-12-18T06:41:11;5.23;;;3.10;;
19525;SDS011;9907;42.676;26.348;2022-12-18T06:43:39;4.70;;;3.53;;
19525;SDS011;9907;42.676;26.348;2022-12-18T06:46:05;3.17;;;2.90;;
19525;SDS011;9907;42.676;26.348;2022-12-18T06:48:31;3.30;;;2.90;;
19525;SDS011;9907;42.676;26.348;2022-12-18T06:50:58;2.90;;;2.60;;
19525;SDS011;9907;42.676;26.348;2022-12-18T06:53:24;3.20;;;2.90;;
19525;SDS011;9907;42.676;26.348;2022-12-18T06:55:49;3.50;;;3.20;;
19525;SDS011;9907;42.676;26.348;2022-12-18T06:58:15;3.43;;;3.13;;
19525;SDS011;9907;42.676;26.348;2022-12-18T07:00:40;2.77;;;2.57;;
19525;SDS011;9907;42.676;26.348;2022-12-18T07:03:06;3.40;;;3.10;;
19525;SDS011;9907;42.676;26.348;2022-12-18T07:05:31;3.60;;;3.07;;
19525;SDS011;9907;42.676;26.348;2022-12-18T07:07:57;3.47;;;2.80;;
19525;SDS011;9907;42.676;26.348;2022-12-18T07:10:23;3.23;;;2.93;;
19525;SDS011;9907;42.676;26.348;2022-12-18T07:12:49;3.97;;;2.90;;
19525;SDS011;9907;42.676;26.348;2022-12-18T07:15:14;4.27;;;3.30;;
19525;SDS011;9907;42.676;26.348;2022-12-18T07:17:40;4.27;;;2.90;;
19525;SDS011;9907;42.676;26.348;2022-12-18T07:20:05;4.97;;;3.00;;
19525;SDS011;9907;42.676;26.348;2022-12-18T07:22:31;2.77;;;2.57;;
19525;SDS011;9907;42.676;26.348;2022-12-18T07:24:56;4.67;;;3.10;;
19525;SDS011;9907;42.676;26.348;2022-12-18T07:27:22;3.50;;;3.10;;
19525;SDS011;9907;42.676;26.348;2022-12-18T07:29:48;3.77;;;3.30;;
19525;SDS011;9907;42.676;26.348;2022-12-18T07:32:13;4.63;;;3.17;;
19525;SDS011;9907;42.676;26.348;2022-12-18T07:34:39;3.43;;;3.13;;
19525;SDS011;9907;42.676;26.348;2022-12-18T07:37:04;3.87;;;3.13;;
19525;SDS011;9907;42.676;26.348;2022-12-18T07:39:30;4.57;;;4.17;;
19525;SDS011;9907;42.676;26.348;2022-12-18T07:41:56;4.30;;;3.23;;
19525;SDS011;9907;42.676;26.348;2022-12-18T07:44:40;3.30;;;3.00;;
19525;SDS011;9907;42.676;26.348;2022-12-18T07:47:06;4.23;;;3.10;;
19525;SDS011;9907;42.676;26.348;2022-12-18T07:49:31;3.63;;;3.33;;
19525;SDS011;9907;42.676;26.348;2022-12-18T07:51:56;4.63;;;3.27;;
19525;SDS011;9907;42.676;26.348;2022-12-18T07:54:23;3.20;;;2.70;;
19525;SDS011;9907;42.676;26.348;2022-12-18T07:56:49;4.10;;;3.03;;
19525;SDS011;9907;42.676;26.348;2022-12-18T07:59:15;8.73;;;6.33;;
19525;SDS011;9907;42.676;26.348;2022-12-18T08:01:41;5.40;;;4.90;;
19525;SDS011;9907;42.676;26.348;2022-12-18T08:04:06;7.37;;;4.73;;
19525;SDS011;9907;42.676;26.348;2022-12-18T08:06:31;11.73;;;6.80;;
19525;SDS011;9907;42.676;26.348;2022-12-18T08:08:57;11.83;;;7.87;;
19525;SDS011;9907;42.676;26.348;2022-12-18T08:11:24;11.17;;;7.70;;
19525;SDS011;9907;42.676;26.348;2022-12-18T08:13:53;9.10;;;7.13;;
19525;SDS011;9907;42.676;26.348;2022-12-18T08:16:20;7.37;;;5.90;;
19525;SDS011;9907;42.676;26.348;2022-12-18T08:18:46;4.90;;;4.07;;
19525;SDS011;9907;42.676;26.348;2022-12-18T08:21:16;4.83;;;3.60;;
19525;SDS011;9907;42.676;26.348;2022-12-18T08:23:45;6.27;;;3.90;;
19525;SDS011;9907;42.676;26.348;2022-12-18T08:26:11;3.37;;;3.03;;
19525;SDS011;9907;42.676;26.348;2022-12-18T08:28:37;4.27;;;3.00;;
19525;SDS011;9907;42.676;26.348;2022-12-18T08:31:03;3.10;;;2.90;;
19525;SDS011;9907;42.676;26.348;2022-12-18T08:33:28;3.50;;;3.13;;
19525;SDS011;9907;42.676;26.348;2022-12-18T08:35:54;3.40;;;3.10;;
19525;SDS011;9907;42.676;26.348;2022-12-18T08:38:19;3.77;;;3.00;;
19525;SDS011;9907;42.676;26.348;2022-12-18T08:40:45;4.43;;;3.20;;
19525;SDS011;9907;42.676;26.348;2022-12-18T08:43:10;3.30;;;3.00;;
19525;SDS011;9907;42.676;26.348;2022-12-18T08:45:55;3.80;;;3.50;;
19525;SDS011;9907;42.676;26.348;2022-12-18T08:48:20;3.20;;;2.90;;
19525;SDS011;9907;42.676;26.348;2022-12-18T08:50:56;4.07;;;3.20;;
19525;SDS011;9907;42.676;26.348;2022-12-18T08:53:23;4.03;;;3.63;;
19525;SDS011;9907;42.676;26.348;2022-12-18T08:55:49;4.30;;;3.30;;
19525;SDS011;9907;42.676;26.348;2022-12-18T08:58:14;11.57;;;8.50;;
19525;SDS011;9907;42.676;26.348;2022-12-18T09:00:40;8.27;;;6.20;;
19525;SDS011;9907;42.676;26.348;2022-12-18T09:03:09;6.97;;;4.60;;
19525;SDS011;9907;42.676;26.348;2022-12-18T09:05:36;6.33;;;5.43;;
19525;SDS011;9907;42.676;26.348;2022-12-18T09:08:02;6.50;;;5.03;;
19525;SDS011;9907;42.676;26.348;2022-12-18T09:10:27;4.83;;;4.33;;
19525;SDS011;9907;42.676;26.348;2022-12-18T09:12:53;9.50;;;4.70;;
19525;SDS011;9907;42.676;26.348;2022-12-18T09:15:18;5.60;;;5.03;;
19525;SDS011;9907;42.676;26.348;2022-12-18T09:17:44;4.87;;;4.37;;
19525;SDS011;9907;42.676;26.348;2022-12-18T09:20:09;5.43;;;4.30;;
19525;SDS011;9907;42.676;26.348;2022-12-18T09:22:35;5.23;;;4.40;;
19525;SDS011;9907;42.676;26.348;2022-12-18T09:25:01;6.27;;;4.73;;
19525;SDS011;9907;42.676;26.348;2022-12-18T09:27:26;4.93;;;4.20;;
19525;SDS011;9907;42.676;26.348;2022-12-18T09:29:52;5.43;;;4.80;;
19525;SDS011;9907;42.676;26.348;2022-12-18T09:32:17;6.70;;;4.93;;
19525;SDS011;9907;42.676;26.348;2022-12-18T09:34:42;7.70;;;5.70;;
19525;SDS011;9907;42.676;26.348;2022-12-18T09:37:08;6.40;;;5.70;;
19525;SDS011;9907;42.676;26.348;2022-12-18T09:39:33;8.77;;;6.13;;
19525;SDS011;9907;42.676;26.348;2022-12-18T09:42:00;7.40;;;6.43;;
19525;SDS011;9907;42.676;26.348;2022-12-18T09:44:30;6.80;;;6.10;;
19525;SDS011;9907;42.676;26.348;2022-12-18T09:47:08;9.13;;;6.60;;
19525;SDS011;9907;42.676;26.348;2022-12-18T09:49:42;7.90;;;6.60;;
19525;SDS011;9907;42.676;26.348;2022-12-18T09:54:53;9.90;;;8.00;;
19525;SDS011;9907;42.676;26.348;2022-12-18T09:57:25;8.57;;;7.70;;
19525;SDS011;9907;42.676;26.348;2022-12-18T09:59:55;10.63;;;8.00;;
19525;SDS011;9907;42.676;26.348;2022-12-18T10:02:24;9.97;;;7.93;;
19525;SDS011;9907;42.676;26.348;2022-12-18T10:05:09;13.20;;;9.07;;
19525;SDS011;9907;42.676;26.348;2022-12-18T10:07:47;9.50;;;6.97;;
19525;SDS011;9907;42.676;26.348;2022-12-18T10:10:31;8.30;;;6.77;;
19525;SDS011;9907;42.676;26.348;2022-12-18T10:16:09;8.43;;;7.50;;
19525;SDS011;9907;42.676;26.348;2022-12-18T10:21:45;10.00;;;6.50;;
19525;SDS011;9907;42.676;26.348;2022-12-18T10:24:50;6.77;;;5.97;;
19525;SDS011;9907;42.676;26.348;2022-12-18T10:27:19;8.60;;;7.20;;
19525;SDS011;9907;42.676;26.348;2022-12-18T10:29:48;10.70;;;8.10;;
19525;SDS011;9907;42.676;26.348;2022-12-18T10:32:18;7.77;;;6.33;;
19525;SDS011;9907;42.676;26.348;2022-12-18T10:34:49;9.30;;;6.50;;
19525;SDS011;9907;42.676;26.348;2022-12-18T10:37:19;7.43;;;6.10;;
19525;SDS011;9907;42.676;26.348;2022-12-18T10:39:47;11.13;;;5.97;;
19525;SDS011;9907;42.676;26.348;2022-12-18T10:42:32;6.07;;;5.50;;
19525;SDS011;9907;42.676;26.348;2022-12-18T10:45:11;6.30;;;5.50;;
19525;SDS011;9907;42.676;26.348;2022-12-18T10:47:46;7.77;;;5.83;;
19525;SDS011;9907;42.676;26.348;2022-12-18T10:50:29;8.17;;;5.27;;
19525;SDS011;9907;42.676;26.348;2022-12-18T10:53:01;9.17;;;6.07;;
19525;SDS011;9907;42.676;26.348;2022-12-18T10:55:38;7.60;;;5.50;;
19525;SDS011;9907;42.676;26.348;2022-12-18T11:03:31;8.23;;;6.53;;
19525;SDS011;9907;42.676;26.348;2022-12-18T11:06:19;9.03;;;6.80;;
19525;SDS011;9907;42.676;26.348;2022-12-18T11:08:59;8.27;;;5.93;;
19525;SDS011;9907;42.676;26.348;2022-12-18T11:11:29;9.03;;;7.80;;
19525;SDS011;9907;42.676;26.348;2022-12-18T11:16:28;14.67;;;10.33;;
19525;SDS011;9907;42.676;26.348;2022-12-18T11:19:20;11.10;;;8.83;;
19525;SDS011;9907;42.676;26.348;2022-12-18T11:21:52;8.00;;;6.80;;
19525;SDS011;9907;42.676;26.348;2022-12-18T11:24:27;7.33;;;6.60;;
19525;SDS011;9907;42.676;26.348;2022-12-18T11:27:03;10.37;;;7.20;;
19525;SDS011;9907;42.676;26.348;2022-12-18T11:35:16;8.47;;;6.50;;
19525;SDS011;9907;42.676;26.348;2022-12-18T11:37:54;10.20;;;6.93;;
19525;SDS011;9907;42.676;26.348;2022-12-18T11:40:30;7.10;;;5.70;;
19525;SDS011;9907;42.676;26.348;2022-12-18T11:43:08;7.07;;;6.00;;
19525;SDS011;9907;42.676;26.348;2022-12-18T11:46:00;6.57;;;5.20;;
19525;SDS011;9907;42.676;26.348;2022-12-18T11:48:33;7.87;;;6.43;;
19525;SDS011;9907;42.676;26.348;2022-12-18T11:51:09;6.60;;;5.20;;
19525;SDS011;9907;42.676;26.348;2022-12-18T11:53:39;6.63;;;5.07;;
19525;SDS011;9907;42.676;26.348;2022-12-18T12:01:58;5.53;;;4.50;;
19525;SDS011;9907;42.676;26.348;2022-12-18T12:12:32;8.00;;;6.80;;
19525;SDS011;9907;42.676;26.348;2022-12-18T12:23:06;7.20;;;6.10;;
19525;SDS011;9907;42.676;26.348;2022-12-18T12:34:26;9.33;;;8.20;;
19525;SDS011;9907;42.676;26.348;2022-12-18T12:39:37;12.17;;;9.10;;
19525;SDS011;9907;42.676;26.348;2022-12-18T12:42:08;11.57;;;9.30;;
19525;SDS011;9907;42.676;26.348;2022-12-18T12:44:59;7.93;;;7.03;;
19525;SDS011;9907;42.676;26.348;2022-12-18T12:47:31;10.90;;;7.73;;
19525;SDS011;9907;42.676;26.348;2022-12-18T12:50:02;8.57;;;7.10;;
19525;SDS011;9907;42.676;26.348;2022-12-18T12:52:37;9.27;;;7.27;;
19525;SDS011;9907;42.676;26.348;2022-12-18T12:55:13;8.87;;;6.97;;
19525;SDS011;9907;42.676;26.348;2022-12-18T12:57:54;8.10;;;6.70;;
19525;SDS011;9907;42.676;26.348;2022-12-18T13:00:41;9.00;;;7.13;;
19525;SDS011;9907;42.676;26.348;2022-12-18T13:05:50;7.97;;;7.13;;
19525;SDS011;9907;42.676;26.348;2022-12-18T13:08:24;7.93;;;7.00;;
19525;SDS011;9907;42.676;26.348;2022-12-18T13:10:52;10.37;;;7.57;;
19525;SDS011;9907;42.676;26.348;2022-12-18T13:13:51;8.13;;;7.00;;
19525;SDS011;9907;42.676;26.348;2022-12-18T13:16:20;7.87;;;6.80;;
19525;SDS011;9907;42.676;26.348;2022-12-18T13:18:48;10.23;;;8.23;;
19525;SDS011;9907;42.676;26.348;2022-12-18T13:21:34;11.63;;;8.90;;
19525;SDS011;9907;42.676;26.348;2022-12-18T13:24:21;8.90;;;8.00;;
19525;SDS011;9907;42.676;26.348;2022-12-18T13:26:50;9.70;;;8.70;;
19525;SDS011;9907;42.676;26.348;2022-12-18T13:32:19;10.63;;;8.50;;
19525;SDS011;9907;42.676;26.348;2022-12-18T13:35:10;11.07;;;9.13;;
19525;SDS011;9907;42.676;26.348;2022-12-18T13:37:53;8.87;;;7.30;;
19525;SDS011;9907;42.676;26.348;2022-12-18T13:45:49;12.07;;;9.70;;
19525;SDS011;9907;42.676;26.348;2022-12-18T13:48:48;9.83;;;8.17;;
19525;SDS011;9907;42.676;26.348;2022-12-18T13:51:34;8.10;;;7.30;;
19525;SDS011;9907;42.676;26.348;2022-12-18T13:57:01;11.80;;;9.30;;
19525;SDS011;9907;42.676;26.348;2022-12-18T13:59:39;11.40;;;10.20;;
19525;SDS011;9907;42.676;26.348;2022-12-18T14:02:19;13.73;;;9.17;;
19525;SDS011;9907;42.676;26.348;2022-12-18T14:04:48;9.70;;;8.67;;
19525;SDS011;9907;42.676;26.348;2022-12-18T14:07:15;12.97;;;9.93;;
19525;SDS011;9907;42.676;26.348;2022-12-18T14:09:44;10.93;;;8.17;;
19525;SDS011;9907;42.676;26.348;2022-12-18T14:12:27;11.23;;;8.70;;
19525;SDS011;9907;42.676;26.348;2022-12-18T14:17:57;12.20;;;8.30;;
19525;SDS011;9907;42.676;26.348;2022-12-18T14:20:27;10.03;;;8.47;;
19525;SDS011;9907;42.676;26.348;2022-12-18T14:22:54;9.60;;;8.13;;
19525;SDS011;9907;42.676;26.348;2022-12-18T14:25:22;9.87;;;8.50;;
19525;SDS011;9907;42.676;26.348;2022-12-18T14:30:36;11.17;;;9.10;;
19525;SDS011;9907;42.676;26.348;2022-12-18T14:33:10;13.13;;;10.97;;
19525;SDS011;9907;42.676;26.348;2022-12-18T14:35:39;16.70;;;12.57;;
19525;SDS011;9907;42.676;26.348;2022-12-18T14:40:53;14.40;;;12.17;;
19525;SDS011;9907;42.676;26.348;2022-12-18T14:43:22;14.93;;;12.67;;
19525;SDS011;9907;42.676;26.348;2022-12-18T14:45:48;15.57;;;12.57;;
19525;SDS011;9907;42.676;26.348;2022-12-18T14:48:21;18.67;;;14.57;;
19525;SDS011;9907;42.676;26.348;2022-12-18T14:53:32;18.43;;;13.03;;
19525;SDS011;9907;42.676;26.348;2022-12-18T14:55:58;17.27;;;13.70;;
19525;SDS011;9907;42.676;26.348;2022-12-18T14:58:25;16.67;;;12.70;;
19525;SDS011;9907;42.676;26.348;2022-12-18T15:00:50;16.77;;;13.10;;
19525;SDS011;9907;42.676;26.348;2022-12-18T15:03:20;15.90;;;13.00;;
19525;SDS011;9907;42.676;26.348;2022-12-18T15:05:46;15.27;;;13.30;;
19525;SDS011;9907;42.676;26.348;2022-12-18T15:08:35;16.63;;;13.13;;
19525;SDS011;9907;42.676;26.348;2022-12-18T15:11:02;18.90;;;13.93;;
19525;SDS011;9907;42.676;26.348;2022-12-18T15:13:28;16.70;;;13.97;;
19525;SDS011;9907;42.676;26.348;2022-12-18T15:15:54;18.50;;;13.93;;
19525;SDS011;9907;42.676;26.348;2022-12-18T15:18:27;14.60;;;12.90;;
19525;SDS011;9907;42.676;26.348;2022-12-18T15:21:06;16.80;;;13.93;;
19525;SDS011;9907;42.676;26.348;2022-12-18T15:23:36;16.20;;;13.57;;
19525;SDS011;9907;42.676;26.348;2022-12-18T15:26:11;22.17;;;17.13;;
19525;SDS011;9907;42.676;26.348;2022-12-18T15:28:49;22.17;;;17.67;;
19525;SDS011;9907;42.676;26.348;2022-12-18T15:33:59;19.20;;;14.17;;
19525;SDS011;9907;42.676;26.348;2022-12-18T15:36:28;18.20;;;13.67;;
19525;SDS011;9907;42.676;26.348;2022-12-18T15:39:01;18.10;;;13.27;;
19525;SDS011;9907;42.676;26.348;2022-12-18T15:41:28;19.17;;;13.97;;
19525;SDS011;9907;42.676;26.348;2022-12-18T15:43:57;15.50;;;12.87;;
19525;SDS011;9907;42.676;26.348;2022-12-18T15:46:23;15.03;;;12.47;;
19525;SDS011;9907;42.676;26.348;2022-12-18T15:48:52;17.73;;;12.80;;
19525;SDS011;9907;42.676;26.348;2022-12-18T15:51:24;17.03;;;13.13;;
19525;SDS011;9907;42.676;26.348;2022-12-18T15:53:58;17.53;;;12.67;;
19525;SDS011;9907;42.676;26.348;2022-12-18T15:56:25;14.87;;;11.53;;
19525;SDS011;9907;42.676;26.348;2022-12-18T15:59:11;13.90;;;12.07;;
19525;SDS011;9907;42.676;26.348;2022-12-18T16:01:38;14.83;;;12.40;;
19525;SDS011;9907;42.676;26.348;2022-12-18T16:04:05;15.23;;;12.30;;
19525;SDS011;9907;42.676;26.348;2022-12-18T16:06:31;16.40;;;12.03;;
19525;SDS011;9907;42.676;26.348;2022-12-18T16:08:56;15.23;;;12.77;;
19525;SDS011;9907;42.676;26.348;2022-12-18T16:11:26;15.37;;;12.23;;
19525;SDS011;9907;42.676;26.348;2022-12-18T16:14:22;15.67;;;12.87;;
19525;SDS011;9907;42.676;26.348;2022-12-18T16:16:52;17.10;;;13.90;;
19525;SDS011;9907;42.676;26.348;2022-12-18T16:19:19;17.30;;;13.80;;
19525;SDS011;9907;42.676;26.348;2022-12-18T16:21:46;17.53;;;13.10;;
19525;SDS011;9907;42.676;26.348;2022-12-18T16:24:17;17.10;;;13.80;;
19525;SDS011;9907;42.676;26.348;2022-12-18T16:26:57;15.87;;;11.97;;
19525;SDS011;9907;42.676;26.348;2022-12-18T16:29:24;15.93;;;12.53;;
19525;SDS011;9907;42.676;26.348;2022-12-18T16:31:56;15.70;;;12.43;;
19525;SDS011;9907;42.676;26.348;2022-12-18T16:34:27;15.30;;;12.77;;
19525;SDS011;9907;42.676;26.348;2022-12-18T16:36:55;16.20;;;12.20;;
19525;SDS011;9907;42.676;26.348;2022-12-18T16:39:21;15.17;;;12.03;;
19525;SDS011;9907;42.676;26.348;2022-12-18T16:41:47;15.53;;;13.77;;
19525;SDS011;9907;42.676;26.348;2022-12-18T16:44:13;26.57;;;22.00;;
19525;SDS011;9907;42.676;26.348;2022-12-18T16:46:39;463.23;;;253.43;;
19525;SDS011;9907;42.676;26.348;2022-12-18T16:49:08;264.83;;;142.47;;